Caribbean Princess — ZCDG8 — position and weather

sailwx.info

Track history (hours):
 
Tides and Currents Weather Stations Pressure Air Temp Water Temp Dewpoint Dewpoint Depression Visibility Wind Speed Wind Dir Waves Ship Positions

Caribbean Princess

Operator: Princess Cruises

Last reported at 2017-Jul-22 06:23 UTC. Time now 2017-Jul-22 08:47 UTC.
Position N 53°57' E 000°31'.

Type: Passenger vessel. MMSI: 310423000.

Date/timePositionNaut miles runAvg speedWind from/ knotsBaromVisibWave heightAir tempDewpointWater temp
2017-Jul-22 06:23N 53°57' E 000°31'616.7
2017-Jul-22 06:00N 54°02' E 000°26'917.3
2017-Jul-22 05:30N 54°10' E 000°18'917.4
2017-Jul-22 05:00N 54°17' E 000°10'917.7
2017-Jul-22 04:30N 54°24' E 000°02'917.8
2017-Jul-22 04:00N 54°32' W 000°07'917.8
2017-Jul-22 03:30N 54°39' W 000°15'917.8
2017-Jul-22 03:00N 54°47' W 000°23'917.5
2017-Jul-22 02:30N 54°54' W 000°32'917.5
2017-Jul-22 02:00N 55°01' W 000°40'2138.0
2017-Jul-22 02:00N 55°00' W 000°42'919.2 110 / 351007.810.8 16.012.414.0
2017-Jul-22 01:30N 55°08' W 000°49'917.5
2017-Jul-22 01:00N 55°16' W 000°57'917.5
2017-Jul-22 00:30N 55°23' W 001°06'917.3
2017-Jul-22 00:00N 55°30' W 001°14'917.0
2017-Jul-21 23:30N 55°37' W 001°23'817.1
2017-Jul-21 23:00N 55°45' W 001°31'817.0
2017-Jul-21 22:30N 55°50' W 001°42'816.8
2017-Jul-21 22:00N 55°56' W 001°52'816.5
2017-Jul-21 21:30N 56°02' W 002°02'816.6
2017-Jul-21 21:00N 56°05' W 002°16'816.6
2017-Jul-21 20:30N 56°07' W 002°31'816.3
2017-Jul-21 20:00N 56°07' W 002°45'816.5
2017-Jul-21 19:30N 56°04' W 002°59'611.5
2017-Jul-21 19:01N 56°03' W 003°10'713.8
2017-Jul-21 18:30N 56°01' W 003°21'1 0.8
2017-Jul-21 17:28N 56°00' W 003°23'0 0.0
2017-Jul-21 14:52N 56°00' W 003°23'0 0.1
2017-Jul-21 14:22N 56°00' W 003°23'0 0.1
2017-Jul-21 13:58N 56°00' W 003°23'0 0.1
2017-Jul-21 13:28N 56°00' W 003°23'0 0.0
2017-Jul-21 12:22N 56°00' W 003°23'0 0.0
2017-Jul-21 11:58N 56°00' W 003°23'0 0.0
2017-Jul-21 11:25N 56°00' W 003°23'0 0.0
2017-Jul-21 10:58N 56°00' W 003°23'0 0.0
2017-Jul-21 10:28N 56°00' W 003°23'0 0.0
2017-Jul-21 09:49N 56°00' W 003°23'0 0.0
2017-Jul-21 09:28N 56°00' W 003°23'0 0.0
2017-Jul-21 08:58N 56°00' W 003°23'0 0.0
2017-Jul-21 08:22N 56°00' W 003°23'0 0.0
2017-Jul-21 07:52N 56°00' W 003°23'0 0.0
2017-Jul-21 07:28N 56°00' W 003°23'0 0.0
2017-Jul-21 06:58N 56°00' W 003°23'0 0.1
2017-Jul-21 06:24N 56°00' W 003°23'2 5.3
2017-Jul-21 06:00N 56°01' W 003°19'714.7
2017-Jul-21 05:30N 56°03' W 003°07'611.6
2017-Jul-21 05:01N 56°04' W 002°56'612.8
2017-Jul-21 04:30N 56°07' W 002°46'714.0
2017-Jul-21 04:00N 56°09' W 002°34'713.4
2017-Jul-21 03:31N 56°14' W 002°25'713.9
2017-Jul-21 03:00N 56°19' W 002°18'714.2
2017-Jul-21 02:30N 56°25' W 002°11'817.0
2017-Jul-21 02:00N 56°33' W 002°03'3202.6
2017-Jul-21 02:00N 56°30' W 002°00'1121.8 200 / 201005.710.8 14.010.212.0
2017-Jul-21 01:30N 56°40' W 001°57'917.4
2017-Jul-21 00:58N 56°49' W 001°51'817.4
2017-Jul-21 00:30N 56°57' W 001°45'917.5
2017-Jul-20 23:59N 57°05' W 001°38'917.9
2017-Jul-20 23:30N 57°13' W 001°37'1018.6
2017-Jul-20 22:57N 57°24' W 001°36'819.2
2017-Jul-20 22:30N 57°32' W 001°37'53 2.6
2017-Jul-20 02:00N 57°48' W 003°12'44 9.7 130 / 281000.6 5.4 13.710.512.0
2017-Jul-19 21:28N 58°27' W 002°34'511.6
2017-Jul-19 21:00N 58°32' W 002°31'612.1
2017-Jul-19 20:30N 58°38' W 002°25'612.1
2017-Jul-19 20:01N 58°43' W 002°19'612.2
2017-Jul-19 19:30N 58°48' W 002°13'612.4
2017-Jul-19 19:01N 58°54' W 002°09'510.4
2017-Jul-19 18:31N 58°58' W 002°14'611.2
2017-Jul-19 18:00N 58°59' W 002°25'611.3
2017-Jul-19 17:30N 58°60' W 002°36'611.5
2017-Jul-19 17:00N 59°00' W 002°47'510.0
2017-Jul-19 16:30N 59°01' W 002°56'2 3.7
2017-Jul-19 15:59N 58°60' W 002°58'0 0.0
2017-Jul-19 15:29N 58°60' W 002°58'0 0.0
2017-Jul-19 14:59N 58°60' W 002°58'0 0.0
2017-Jul-19 14:29N 58°60' W 002°58'0 0.0
2017-Jul-19 13:59N 58°60' W 002°58'0 0.0
2017-Jul-19 13:29N 58°60' W 002°58'0 0.0
2017-Jul-19 12:59N 58°60' W 002°58'0 0.0
2017-Jul-19 12:29N 58°60' W 002°58'0 0.0
2017-Jul-19 11:59N 58°60' W 002°58'0 0.0
2017-Jul-19 11:29N 58°60' W 002°58'0 0.0
2017-Jul-19 10:59N 58°60' W 002°58'0 0.0
2017-Jul-19 10:29N 58°60' W 002°58'0 0.0
2017-Jul-19 09:59N 58°60' W 002°58'0 0.0
2017-Jul-19 09:29N 58°60' W 002°58'0 0.0
2017-Jul-19 08:59N 58°60' W 002°58'0 0.0
2017-Jul-19 08:29N 58°60' W 002°58'0 0.0
2017-Jul-19 07:59N 58°60' W 002°58'0 0.0
2017-Jul-19 07:29N 58°60' W 002°58'0 0.0
2017-Jul-19 06:59N 58°60' W 002°58'0 0.0
2017-Jul-19 06:29N 58°60' W 002°58'0 0.0
2017-Jul-19 05:58N 58°60' W 002°58'0 0.0
2017-Jul-19 05:30N 58°60' W 002°58'1 1.9
2017-Jul-19 05:00N 59°01' W 002°58'5 9.9
2017-Jul-19 04:30N 59°00' W 002°48'611.8
2017-Jul-19 04:00N 58°60' W 002°37'714.7
2017-Jul-19 03:30N 59°01' W 002°23'1912.4
2017-Jul-19 02:00N 59°18' W 002°06'2318.2 130 / 331016.210.8 12.7 9.412.0
2017-Jul-19 00:42N 59°29' W 002°47'2214.2
2017-Jul-18 23:10N 59°27' W 003°29'214.2
2017-Jul-18 23:00N 59°25' W 003°33'713.9
2017-Jul-18 22:30N 59°21' W 003°43'713.3
2017-Jul-18 22:00N 59°16' W 003°52'714.0
2017-Jul-18 21:30N 59°09' W 003°56'714.0
2017-Jul-18 21:00N 59°02' W 003°60'713.9
2017-Jul-18 20:30N 58°56' W 004°04'612.5
2017-Jul-18 20:00N 58°51' W 004°11'612.7
2017-Jul-18 19:30N 58°49' W 004°23'612.8
2017-Jul-18 19:00N 58°48' W 004°35'713.0
2017-Jul-18 18:30N 58°46' W 004°47'2213.1
2017-Jul-18 16:49N 58°33' W 005°21'514.7
2017-Jul-18 16:29N 58°28' W 005°26'3212.9
2017-Jul-18 14:00N 58°00' W 005°54'9514.4 030 / 121015.010.8 17.316.012.0
2017-Jul-18 07:25N 56°36' W 007°16'714.3
2017-Jul-18 06:55N 56°30' W 007°22'1314.4
2017-Jul-18 06:02N 56°18' W 007°31'114.1
2017-Jul-18 06:00N 56°18' W 007°31'6630.2
2017-Jul-18 06:00N 56°12' W 007°30'1 1.5 120 / 141017.810.8 13.311.812.0
2017-Jul-18 05:30N 56°11' W 007°31'713.9
2017-Jul-18 05:00N 56°05' W 007°24'713.5
2017-Jul-18 04:30N 55°60' W 007°17'613.1
2017-Jul-18 04:00N 55°54' W 007°11'612.6
2017-Jul-18 03:30N 55°49' W 007°05'612.0
2017-Jul-18 03:00N 55°44' W 006°59'611.1
2017-Jul-18 02:30N 55°40' W 006°54'511.0
2017-Jul-18 02:00N 55°37' W 006°45'2154.5
2017-Jul-18 02:00N 55°36' W 006°42'4 7.7 090 / 101020.810.8 13.311.812.0
2017-Jul-18 01:30N 55°34' W 006°37'611.7
2017-Jul-18 01:00N 55°31' W 006°28'612.3
2017-Jul-18 00:30N 55°27' W 006°19'612.8
2017-Jul-18 00:00N 55°25' W 006°08'612.6
2017-Jul-17 23:30N 55°22' W 005°59'714.2
2017-Jul-17 23:00N 55°17' W 005°51'714.0
2017-Jul-17 22:30N 55°14' W 005°39'714.7
2017-Jul-17 22:00N 55°16' W 005°26'714.4
2017-Jul-17 21:30N 55°19' W 005°14'714.1
2017-Jul-17 21:00N 55°21' W 005°03'713.2
2017-Jul-17 20:30N 55°27' W 004°57'713.3
2017-Jul-17 20:00N 55°34' W 004°58'1013.5
2017-Jul-17 19:17N 55°43' W 004°59'19 1.2
2017-Jul-17 03:00N 55°24' W 004°54'3 3.6 270 / 201023.010.8 18.3-3.212.0
2017-Jul-17 02:05N 55°23' W 004°59'111.3
2017-Jul-17 02:00N 55°22' W 005°00'711.3
2017-Jul-17 01:25N 55°20' W 005°11'610.4
2017-Jul-17 00:53N 55°15' W 005°17'511.5
2017-Jul-17 00:29N 55°11' W 005°19'612.0
2017-Jul-16 23:59N 55°09' W 005°29'510.6
2017-Jul-16 23:30N 55°06' W 005°35'510.6
2017-Jul-16 23:00N 55°01' W 005°34'510.9
2017-Jul-16 22:30N 54°55' W 005°31'510.0
2017-Jul-16 22:00N 54°50' W 005°30'510.5
2017-Jul-16 21:30N 54°46' W 005°35'611.2
2017-Jul-16 21:00N 54°42' W 005°42'611.3
2017-Jul-16 20:30N 54°40' W 005°51'3 3.0
2017-Jul-16 19:26N 54°37' W 005°54'0 0.0
2017-Jul-16 18:53N 54°37' W 005°54'0 0.0
2017-Jul-16 18:05N 54°37' W 005°54'0 0.0
2017-Jul-16 17:56N 54°37' W 005°54'0 0.0
2017-Jul-16 17:26N 54°37' W 005°54'0 0.0
2017-Jul-16 16:44N 54°37' W 005°54'0 0.0
2017-Jul-16 16:26N 54°37' W 005°54'0 0.0
2017-Jul-16 15:44N 54°37' W 005°54'0 0.0
2017-Jul-16 15:23N 54°37' W 005°54'0 0.0
2017-Jul-16 14:56N 54°37' W 005°54'0 0.0
2017-Jul-16 14:26N 54°37' W 005°54'0 0.0
2017-Jul-16 13:50N 54°37' W 005°54'0 0.0
2017-Jul-16 13:05N 54°37' W 005°54'0 0.0
2017-Jul-16 12:59N 54°37' W 005°54'0 0.0
2017-Jul-16 12:13N 54°37' W 005°54'0 0.0
2017-Jul-16 11:49N 54°37' W 005°54'0 0.0
2017-Jul-16 11:25N 54°37' W 005°54'0 0.0
2017-Jul-16 10:07N 54°37' W 005°54'0 0.0
2017-Jul-16 09:16N 54°37' W 005°54'0 0.0
2017-Jul-16 08:28N 54°37' W 005°54'0 0.0
2017-Jul-16 07:18N 54°37' W 005°54'0 0.0
2017-Jul-16 06:52N 54°37' W 005°54'0 0.0
2017-Jul-16 06:30N 54°37' W 005°54'1 1.2
2017-Jul-16 06:00N 54°37' W 005°53'4 7.7
2017-Jul-16 05:30N 54°41' W 005°49'510.9
2017-Jul-16 05:00N 54°43' W 005°41'510.8
2017-Jul-16 04:30N 54°45' W 005°32'510.0
2017-Jul-16 04:00N 54°46' W 005°24'510.2
2017-Jul-16 03:30N 54°42' W 005°18'510.0
2017-Jul-16 03:00N 54°38' W 005°12'5 9.7
2017-Jul-16 02:30N 54°34' W 005°06'5 9.3
2017-Jul-16 02:00N 54°30' W 005°05'5 9.6
2017-Jul-16 01:30N 54°26' W 004°60'5 9.8
2017-Jul-16 01:00N 54°21' W 005°02'5 9.9
2017-Jul-16 00:30N 54°17' W 005°06'510.2
2017-Jul-16 00:00N 54°12' W 005°10'5 9.9
2017-Jul-15 23:30N 54°08' W 005°14'510.3
2017-Jul-15 22:59N 54°03' W 005°18'510.4
2017-Jul-15 22:30N 53°58' W 005°22'510.5
2017-Jul-15 21:59N 53°54' W 005°26'510.4
2017-Jul-15 21:29N 53°49' W 005°30'2013.6
2017-Jul-15 20:00N 53°30' W 005°42'8 6.3 270 / 201017.110.8 18.3-3.216.0
2017-Jul-15 18:40N 53°25' W 005°53'3 9.3
2017-Jul-15 18:23N 53°23' W 005°56'4 9.8
2017-Jul-15 17:59N 53°21' W 006°01'7 8.1
2017-Jul-15 17:08N 53°21' W 006°13'0 0.9
2017-Jul-15 16:59N 53°21' W 006°13'0 0.0
2017-Jul-15 15:33N 53°21' W 006°13'0 0.0
2017-Jul-15 15:30N 53°21' W 006°13'0 0.0
2017-Jul-15 14:37N 53°21' W 006°13'0 0.0
2017-Jul-15 13:52N 53°21' W 006°13'0 0.0
2017-Jul-15 12:39N 53°21' W 006°13'0 0.0
2017-Jul-15 12:28N 53°21' W 006°13'0 0.0
2017-Jul-15 11:36N 53°21' W 006°13'0 0.0
2017-Jul-15 11:09N 53°21' W 006°13'0 0.0
2017-Jul-15 10:51N 53°21' W 006°13'0 0.0
2017-Jul-15 10:03N 53°21' W 006°13'0 0.0
2017-Jul-15 09:59N 53°21' W 006°13'0 0.0
2017-Jul-15 08:31N 53°21' W 006°13'0 0.0
2017-Jul-15 08:25N 53°21' W 006°13'0 0.0
2017-Jul-15 07:08N 53°21' W 006°13'0 0.0
2017-Jul-15 05:59N 53°21' W 006°13'0 0.0
2017-Jul-15 05:29N 53°21' W 006°13'0 1.0
2017-Jul-15 04:59N 53°21' W 006°12'5 9.2
2017-Jul-15 04:29N 53°20' W 006°04'610.4
2017-Jul-15 03:57N 53°20' W 005°55'511.2
2017-Jul-15 03:29N 53°17' W 005°48'4315.8
2017-Jul-15 00:47N 52°34' W 005°48'518.7
2017-Jul-15 00:30N 52°29' W 005°51'1020.7
2017-Jul-15 00:00N 52°19' W 005°55'1020.7
2017-Jul-14 23:30N 52°09' W 005°60'1019.4
2017-Jul-14 23:00N 52°03' W 006°11'1020.1
2017-Jul-14 22:30N 52°00' W 006°27'1019.8
2017-Jul-14 22:00N 51°58' W 006°43'1019.2
2017-Jul-14 21:30N 51°55' W 006°58'1019.1
2017-Jul-14 21:00N 51°53' W 007°13'1019.0
2017-Jul-14 20:30N 51°51' W 007°28'918.9
2017-Jul-14 20:00N 51°48' W 007°43'1019.2
2017-Jul-14 19:31N 51°46' W 007°58'918.9
2017-Jul-14 19:00N 51°45' W 008°13'611.2
2017-Jul-14 18:31N 51°50' W 008°16'2 3.2
2017-Jul-14 18:00N 51°51' W 008°18'0 0.0
2017-Jul-14 17:29N 51°51' W 008°18'0 0.0
2017-Jul-14 16:59N 51°51' W 008°18'0 0.0
2017-Jul-14 16:29N 51°51' W 008°18'0 0.0
2017-Jul-14 15:59N 51°51' W 008°18'0 0.0
2017-Jul-14 15:29N 51°51' W 008°18'0 0.0
2017-Jul-14 14:59N 51°51' W 008°18'0 0.0
2017-Jul-14 14:29N 51°51' W 008°18'0 0.0
2017-Jul-14 13:59N 51°51' W 008°18'0 0.0
2017-Jul-14 13:29N 51°51' W 008°18'0 0.0
2017-Jul-14 12:59N 51°51' W 008°18'0 0.0
2017-Jul-14 12:30N 51°51' W 008°18'0 0.0
2017-Jul-14 11:59N 51°51' W 008°18'0 0.0
2017-Jul-14 11:30N 51°51' W 008°18'0 0.0
2017-Jul-14 10:59N 51°51' W 008°18'0 0.0
2017-Jul-14 10:29N 51°51' W 008°18'0 0.0
2017-Jul-14 10:01N 51°51' W 008°18'0 0.0
2017-Jul-14 09:28N 51°51' W 008°18'0 0.0
2017-Jul-14 09:01N 51°51' W 008°18'0 0.0
2017-Jul-14 08:31N 51°51' W 008°18'0 0.4
2017-Jul-14 08:00N 51°51' W 008°18'5 9.1
2017-Jul-14 07:31N 51°47' W 008°15'815.4
2017-Jul-14 07:00N 51°40' W 008°09'1019.1
2017-Jul-14 06:30N 51°34' W 007°57'1019.1
2017-Jul-14 06:00N 51°27' W 007°46'918.9
2017-Jul-14 05:30N 51°21' W 007°35'6618.7
2017-Jul-14 02:00N 50°36' W 006°18'1318.5 320 / 271022.810.8 15.014.118.0
2017-Jul-14 01:16N 50°26' W 006°03'618.6
2017-Jul-14 00:58N 50°23' W 005°57'817.1
2017-Jul-14 00:30N 50°15' W 005°54'1017.8
2017-Jul-13 23:58N 50°05' W 005°54'817.5
2017-Jul-13 23:29N 49°57' W 005°53'1116.6
2017-Jul-13 22:48N 49°51' W 005°38'818.7
2017-Jul-13 22:22N 49°49' W 005°26'718.5
2017-Jul-13 21:59N 49°47' W 005°15'918.4
2017-Jul-13 21:30N 49°45' W 005°02'1018.2
2017-Jul-13 20:57N 49°43' W 004°47'1818.0
2017-Jul-13 19:57N 49°39' W 004°20'817.6
2017-Jul-13 19:30N 49°37' W 004°08'917.5
2017-Jul-13 19:00N 49°36' W 003°54'917.7
2017-Jul-13 18:30N 49°33' W 003°41'918.0
2017-Jul-13 18:00N 49°31' W 003°28'918.2
2017-Jul-13 17:30N 49°29' W 003°14'1118.4
2017-Jul-13 16:56N 49°26' W 002°59'917.8
2017-Jul-13 16:25N 49°24' W 002°45'911.3
2017-Jul-13 15:35N 49°27' W 002°31'110.1
2017-Jul-13 15:30N 49°27' W 002°31'1 1.1
2017-Jul-13 15:01N 49°28' W 002°30'0 0.0
2017-Jul-13 14:25N 49°28' W 002°30'0 0.1
2017-Jul-13 13:55N 49°28' W 002°30'0 0.0
2017-Jul-13 13:28N 49°28' W 002°30'0 0.1
2017-Jul-13 12:58N 49°28' W 002°30'0 0.0
2017-Jul-13 12:30N 49°28' W 002°30'0 0.1
2017-Jul-13 12:00N 49°28' W 002°30'0 0.0
2017-Jul-13 11:30N 49°28' W 002°30'0 0.0
2017-Jul-13 10:16N 49°28' W 002°30'0 0.0
2017-Jul-13 08:28N 49°28' W 002°30'0 0.0
2017-Jul-13 07:25N 49°28' W 002°30'0 0.0
2017-Jul-13 05:58N 49°28' W 002°30'0 0.1
2017-Jul-13 05:25N 49°28' W 002°30'0 0.1
2017-Jul-13 04:36N 49°28' W 002°30'1 4.0
2017-Jul-13 04:28N 49°27' W 002°30'22 6.9
2017-Jul-13 01:17N 49°43' W 002°54'1012.9
2017-Jul-13 00:30N 49°53' W 002°57'611.7
2017-Jul-13 00:00N 49°58' W 002°52'816.0
2017-Jul-12 23:30N 49°60' W 002°40'915.2
2017-Jul-12 22:56N 50°02' W 002°28'914.4
2017-Jul-12 22:20N 50°06' W 002°16'514.1
2017-Jul-12 22:00N 50°09' W 002°09'714.0
2017-Jul-12 21:30N 50°12' W 001°60'714.0
2017-Jul-12 21:00N 50°16' W 001°51'714.0
2017-Jul-12 20:30N 50°19' W 001°41'714.7
2017-Jul-12 20:01N 50°23' W 001°31'815.2
2017-Jul-12 19:30N 50°27' W 001°21'815.8
2017-Jul-12 19:00N 50°31' W 001°10'815.8
2017-Jul-12 18:30N 50°35' W 000°60'713.8
2017-Jul-12 18:00N 50°42' W 000°58'714.8
2017-Jul-12 17:31N 50°46' W 001°09'713.2
2017-Jul-12 17:01N 50°47' W 001°19'5 9.2
2017-Jul-12 16:31N 50°52' W 001°22'2 4.6
2017-Jul-12 16:00N 50°53' W 001°24'0 0.0
2017-Jul-12 15:30N 50°53' W 001°24'0 0.0
2017-Jul-12 15:00N 50°53' W 001°24'0 0.0
2017-Jul-12 14:00N 50°53' W 001°24'0 0.0
2017-Jul-12 13:30N 50°53' W 001°24'0 0.0
2017-Jul-12 13:00N 50°53' W 001°24'0 0.0
2017-Jul-12 12:30N 50°53' W 001°24'0 0.0
2017-Jul-12 12:00N 50°53' W 001°24'0 0.0
2017-Jul-12 11:30N 50°53' W 001°24'0 0.0
2017-Jul-12 11:00N 50°53' W 001°24'0 0.0
2017-Jul-12 10:30N 50°53' W 001°24'0 0.0
2017-Jul-12 10:00N 50°53' W 001°24'0 0.0
2017-Jul-12 09:30N 50°53' W 001°24'0 0.0
2017-Jul-12 09:00N 50°53' W 001°24'0 0.0
2017-Jul-12 08:30N 50°53' W 001°24'0 0.0
2017-Jul-12 08:00N 50°53' W 001°24'0 0.0
2017-Jul-12 07:30N 50°53' W 001°24'0 0.0
2017-Jul-12 07:01N 50°53' W 001°24'0 0.0
2017-Jul-12 06:29N 50°53' W 001°24'  
Track history (hours):
 
Tides and Currents Weather Stations Pressure Air Temp Water Temp Dewpoint Dewpoint Depression Visibility Wind Speed Wind Dir Waves Ship Positions

Caribbean Princess

Operator: Princess Cruises

Last reported at 2017-Jul-22 06:23 UTC. Time now 2017-Jul-22 08:47 UTC.
Position N 53°57' E 000°31'.

Type: Passenger vessel. MMSI: 310423000.

Date/timePositionNaut miles runAvg speedWind from/ knotsBaromVisibWave heightAir tempDewpointWater temp
2017-Jul-22 06:23N 53°57' E 000°31'616.7
2017-Jul-22 06:00N 54°02' E 000°26'917.3
2017-Jul-22 05:30N 54°10' E 000°18'917.4
2017-Jul-22 05:00N 54°17' E 000°10'917.7
2017-Jul-22 04:30N 54°24' E 000°02'917.8
2017-Jul-22 04:00N 54°32' W 000°07'917.8
2017-Jul-22 03:30N 54°39' W 000°15'917.8
2017-Jul-22 03:00N 54°47' W 000°23'917.5
2017-Jul-22 02:30N 54°54' W 000°32'917.5
2017-Jul-22 02:00N 55°01' W 000°40'2138.0
2017-Jul-22 02:00N 55°00' W 000°42'919.2 110 / 351007.810.8 16.012.414.0
2017-Jul-22 01:30N 55°08' W 000°49'917.5
2017-Jul-22 01:00N 55°16' W 000°57'917.5
2017-Jul-22 00:30N 55°23' W 001°06'917.3
2017-Jul-22 00:00N 55°30' W 001°14'917.0
2017-Jul-21 23:30N 55°37' W 001°23'817.1
2017-Jul-21 23:00N 55°45' W 001°31'817.0
2017-Jul-21 22:30N 55°50' W 001°42'816.8
2017-Jul-21 22:00N 55°56' W 001°52'816.5
2017-Jul-21 21:30N 56°02' W 002°02'816.6
2017-Jul-21 21:00N 56°05' W 002°16'816.6
2017-Jul-21 20:30N 56°07' W 002°31'816.3
2017-Jul-21 20:00N 56°07' W 002°45'816.5
2017-Jul-21 19:30N 56°04' W 002°59'611.5
2017-Jul-21 19:01N 56°03' W 003°10'713.8
2017-Jul-21 18:30N 56°01' W 003°21'1 0.8
2017-Jul-21 17:28N 56°00' W 003°23'0 0.0
2017-Jul-21 14:52N 56°00' W 003°23'0 0.1
2017-Jul-21 14:22N 56°00' W 003°23'0 0.1
2017-Jul-21 13:58N 56°00' W 003°23'0 0.1
2017-Jul-21 13:28N 56°00' W 003°23'0 0.0
2017-Jul-21 12:22N 56°00' W 003°23'0 0.0
2017-Jul-21 11:58N 56°00' W 003°23'0 0.0
2017-Jul-21 11:25N 56°00' W 003°23'0 0.0
2017-Jul-21 10:58N 56°00' W 003°23'0 0.0
2017-Jul-21 10:28N 56°00' W 003°23'0 0.0
2017-Jul-21 09:49N 56°00' W 003°23'0 0.0
2017-Jul-21 09:28N 56°00' W 003°23'0 0.0
2017-Jul-21 08:58N 56°00' W 003°23'0 0.0
2017-Jul-21 08:22N 56°00' W 003°23'0 0.0
2017-Jul-21 07:52N 56°00' W 003°23'0 0.0
2017-Jul-21 07:28N 56°00' W 003°23'0 0.0
2017-Jul-21 06:58N 56°00' W 003°23'0 0.1
2017-Jul-21 06:24N 56°00' W 003°23'2 5.3
2017-Jul-21 06:00N 56°01' W 003°19'714.7
2017-Jul-21 05:30N 56°03' W 003°07'611.6
2017-Jul-21 05:01N 56°04' W 002°56'612.8
2017-Jul-21 04:30N 56°07' W 002°46'714.0
2017-Jul-21 04:00N 56°09' W 002°34'713.4
2017-Jul-21 03:31N 56°14' W 002°25'713.9
2017-Jul-21 03:00N 56°19' W 002°18'714.2
2017-Jul-21 02:30N 56°25' W 002°11'817.0
2017-Jul-21 02:00N 56°33' W 002°03'3202.6
2017-Jul-21 02:00N 56°30' W 002°00'1121.8 200 / 201005.710.8 14.010.212.0
2017-Jul-21 01:30N 56°40' W 001°57'917.4
2017-Jul-21 00:58N 56°49' W 001°51'817.4
2017-Jul-21 00:30N 56°57' W 001°45'917.5
2017-Jul-20 23:59N 57°05' W 001°38'917.9
2017-Jul-20 23:30N 57°13' W 001°37'1018.6
2017-Jul-20 22:57N 57°24' W 001°36'819.2
2017-Jul-20 22:30N 57°32' W 001°37'53 2.6
2017-Jul-20 02:00N 57°48' W 003°12'44 9.7 130 / 281000.6 5.4 13.710.512.0
2017-Jul-19 21:28N 58°27' W 002°34'511.6
2017-Jul-19 21:00N 58°32' W 002°31'612.1
2017-Jul-19 20:30N 58°38' W 002°25'612.1
2017-Jul-19 20:01N 58°43' W 002°19'612.2
2017-Jul-19 19:30N 58°48' W 002°13'612.4
2017-Jul-19 19:01N 58°54' W 002°09'510.4
2017-Jul-19 18:31N 58°58' W 002°14'611.2
2017-Jul-19 18:00N 58°59' W 002°25'611.3
2017-Jul-19 17:30N 58°60' W 002°36'611.5
2017-Jul-19 17:00N 59°00' W 002°47'510.0
2017-Jul-19 16:30N 59°01' W 002°56'2 3.7
2017-Jul-19 15:59N 58°60' W 002°58'0 0.0
2017-Jul-19 15:29N 58°60' W 002°58'0 0.0
2017-Jul-19 14:59N 58°60' W 002°58'0 0.0
2017-Jul-19 14:29N 58°60' W 002°58'0 0.0
2017-Jul-19 13:59N 58°60' W 002°58'0 0.0
2017-Jul-19 13:29N 58°60' W 002°58'0 0.0
2017-Jul-19 12:59N 58°60' W 002°58'0 0.0
2017-Jul-19 12:29N 58°60' W 002°58'0 0.0
2017-Jul-19 11:59N 58°60' W 002°58'0 0.0
2017-Jul-19 11:29N 58°60' W 002°58'0 0.0
2017-Jul-19 10:59N 58°60' W 002°58'0 0.0
2017-Jul-19 10:29N 58°60' W 002°58'0 0.0
2017-Jul-19 09:59N 58°60' W 002°58'0 0.0
2017-Jul-19 09:29N 58°60' W 002°58'0 0.0
2017-Jul-19 08:59N 58°60' W 002°58'0 0.0
2017-Jul-19 08:29N 58°60' W 002°58'0 0.0
2017-Jul-19 07:59N 58°60' W 002°58'0 0.0
2017-Jul-19 07:29N 58°60' W 002°58'0 0.0
2017-Jul-19 06:59N 58°60' W 002°58'0 0.0
2017-Jul-19 06:29N 58°60' W 002°58'0 0.0
2017-Jul-19 05:58N 58°60' W 002°58'0 0.0
2017-Jul-19 05:30N 58°60' W 002°58'1 1.9
2017-Jul-19 05:00N 59°01' W 002°58'5 9.9
2017-Jul-19 04:30N 59°00' W 002°48'611.8
2017-Jul-19 04:00N 58°60' W 002°37'714.7
2017-Jul-19 03:30N 59°01' W 002°23'1912.4
2017-Jul-19 02:00N 59°18' W 002°06'2318.2 130 / 331016.210.8 12.7 9.412.0
2017-Jul-19 00:42N 59°29' W 002°47'2214.2
2017-Jul-18 23:10N 59°27' W 003°29'214.2
2017-Jul-18 23:00N 59°25' W 003°33'713.9
2017-Jul-18 22:30N 59°21' W 003°43'713.3
2017-Jul-18 22:00N 59°16' W 003°52'714.0
2017-Jul-18 21:30N 59°09' W 003°56'714.0
2017-Jul-18 21:00N 59°02' W 003°60'713.9
2017-Jul-18 20:30N 58°56' W 004°04'612.5
2017-Jul-18 20:00N 58°51' W 004°11'612.7
2017-Jul-18 19:30N 58°49' W 004°23'612.8
2017-Jul-18 19:00N 58°48' W 004°35'713.0
2017-Jul-18 18:30N 58°46' W 004°47'2213.1
2017-Jul-18 16:49N 58°33' W 005°21'514.7
2017-Jul-18 16:29N 58°28' W 005°26'3212.9
2017-Jul-18 14:00N 58°00' W 005°54'9514.4 030 / 121015.010.8 17.316.012.0
2017-Jul-18 07:25N 56°36' W 007°16'714.3
2017-Jul-18 06:55N 56°30' W 007°22'1314.4
2017-Jul-18 06:02N 56°18' W 007°31'114.1
2017-Jul-18 06:00N 56°18' W 007°31'6630.2
2017-Jul-18 06:00N 56°12' W 007°30'1 1.5 120 / 141017.810.8 13.311.812.0
2017-Jul-18 05:30N 56°11' W 007°31'713.9
2017-Jul-18 05:00N 56°05' W 007°24'713.5
2017-Jul-18 04:30N 55°60' W 007°17'613.1
2017-Jul-18 04:00N 55°54' W 007°11'612.6
2017-Jul-18 03:30N 55°49' W 007°05'612.0
2017-Jul-18 03:00N 55°44' W 006°59'611.1
2017-Jul-18 02:30N 55°40' W 006°54'511.0
2017-Jul-18 02:00N 55°37' W 006°45'2154.5
2017-Jul-18 02:00N 55°36' W 006°42'4 7.7 090 / 101020.810.8 13.311.812.0
2017-Jul-18 01:30N 55°34' W 006°37'611.7
2017-Jul-18 01:00N 55°31' W 006°28'612.3
2017-Jul-18 00:30N 55°27' W 006°19'612.8
2017-Jul-18 00:00N 55°25' W 006°08'612.6
2017-Jul-17 23:30N 55°22' W 005°59'714.2
2017-Jul-17 23:00N 55°17' W 005°51'714.0
2017-Jul-17 22:30N 55°14' W 005°39'714.7
2017-Jul-17 22:00N 55°16' W 005°26'714.4
2017-Jul-17 21:30N 55°19' W 005°14'714.1
2017-Jul-17 21:00N 55°21' W 005°03'713.2
2017-Jul-17 20:30N 55°27' W 004°57'713.3
2017-Jul-17 20:00N 55°34' W 004°58'1013.5
2017-Jul-17 19:17N 55°43' W 004°59'19 1.2
2017-Jul-17 03:00N 55°24' W 004°54'3 3.6 270 / 201023.010.8 18.3-3.212.0
2017-Jul-17 02:05N 55°23' W 004°59'111.3
2017-Jul-17 02:00N 55°22' W 005°00'711.3
2017-Jul-17 01:25N 55°20' W 005°11'610.4
2017-Jul-17 00:53N 55°15' W 005°17'511.5
2017-Jul-17 00:29N 55°11' W 005°19'612.0
2017-Jul-16 23:59N 55°09' W 005°29'510.6
2017-Jul-16 23:30N 55°06' W 005°35'510.6
2017-Jul-16 23:00N 55°01' W 005°34'510.9
2017-Jul-16 22:30N 54°55' W 005°31'510.0
2017-Jul-16 22:00N 54°50' W 005°30'510.5
2017-Jul-16 21:30N 54°46' W 005°35'611.2
2017-Jul-16 21:00N 54°42' W 005°42'611.3
2017-Jul-16 20:30N 54°40' W 005°51'3 3.0
2017-Jul-16 19:26N 54°37' W 005°54'0 0.0
2017-Jul-16 18:53N 54°37' W 005°54'0 0.0
2017-Jul-16 18:05N 54°37' W 005°54'0 0.0
2017-Jul-16 17:56N 54°37' W 005°54'0 0.0
2017-Jul-16 17:26N 54°37' W 005°54'0 0.0
2017-Jul-16 16:44N 54°37' W 005°54'0 0.0
2017-Jul-16 16:26N 54°37' W 005°54'0 0.0
2017-Jul-16 15:44N 54°37' W 005°54'0 0.0
2017-Jul-16 15:23N 54°37' W 005°54'0 0.0
2017-Jul-16 14:56N 54°37' W 005°54'0 0.0
2017-Jul-16 14:26N 54°37' W 005°54'0 0.0
2017-Jul-16 13:50N 54°37' W 005°54'0 0.0
2017-Jul-16 13:05N 54°37' W 005°54'0 0.0
2017-Jul-16 12:59N 54°37' W 005°54'0 0.0
2017-Jul-16 12:13N 54°37' W 005°54'0 0.0
2017-Jul-16 11:49N 54°37' W 005°54'0 0.0
2017-Jul-16 11:25N 54°37' W 005°54'0 0.0
2017-Jul-16 10:07N 54°37' W 005°54'0 0.0
2017-Jul-16 09:16N 54°37' W 005°54'0 0.0
2017-Jul-16 08:28N 54°37' W 005°54'0 0.0
2017-Jul-16 07:18N 54°37' W 005°54'0 0.0
2017-Jul-16 06:52N 54°37' W 005°54'0 0.0
2017-Jul-16 06:30N 54°37' W 005°54'1 1.2
2017-Jul-16 06:00N 54°37' W 005°53'4 7.7
2017-Jul-16 05:30N 54°41' W 005°49'510.9
2017-Jul-16 05:00N 54°43' W 005°41'510.8
2017-Jul-16 04:30N 54°45' W 005°32'510.0
2017-Jul-16 04:00N 54°46' W 005°24'510.2
2017-Jul-16 03:30N 54°42' W 005°18'510.0
2017-Jul-16 03:00N 54°38' W 005°12'5 9.7
2017-Jul-16 02:30N 54°34' W 005°06'5 9.3
2017-Jul-16 02:00N 54°30' W 005°05'5 9.6
2017-Jul-16 01:30N 54°26' W 004°60'5 9.8
2017-Jul-16 01:00N 54°21' W 005°02'5 9.9
2017-Jul-16 00:30N 54°17' W 005°06'510.2
2017-Jul-16 00:00N 54°12' W 005°10'5 9.9
2017-Jul-15 23:30N 54°08' W 005°14'510.3
2017-Jul-15 22:59N 54°03' W 005°18'510.4
2017-Jul-15 22:30N 53°58' W 005°22'510.5
2017-Jul-15 21:59N 53°54' W 005°26'510.4
2017-Jul-15 21:29N 53°49' W 005°30'2013.6
2017-Jul-15 20:00N 53°30' W 005°42'8 6.3 270 / 201017.110.8 18.3-3.216.0
2017-Jul-15 18:40N 53°25' W 005°53'3 9.3
2017-Jul-15 18:23N 53°23' W 005°56'4 9.8
2017-Jul-15 17:59N 53°21' W 006°01'7 8.1
2017-Jul-15 17:08N 53°21' W 006°13'0 0.9
2017-Jul-15 16:59N 53°21' W 006°13'0 0.0
2017-Jul-15 15:33N 53°21' W 006°13'0 0.0
2017-Jul-15 15:30N 53°21' W 006°13'0 0.0
2017-Jul-15 14:37N 53°21' W 006°13'0 0.0
2017-Jul-15 13:52N 53°21' W 006°13'0 0.0
2017-Jul-15 12:39N 53°21' W 006°13'0 0.0
2017-Jul-15 12:28N 53°21' W 006°13'0 0.0
2017-Jul-15 11:36N 53°21' W 006°13'0 0.0
2017-Jul-15 11:09N 53°21' W 006°13'0 0.0
2017-Jul-15 10:51N 53°21' W 006°13'0 0.0
2017-Jul-15 10:03N 53°21' W 006°13'0 0.0
2017-Jul-15 09:59N 53°21' W 006°13'0 0.0
2017-Jul-15 08:31N 53°21' W 006°13'0 0.0
2017-Jul-15 08:25N 53°21' W 006°13'0 0.0
2017-Jul-15 07:08N 53°21' W 006°13'0 0.0
2017-Jul-15 05:59N 53°21' W 006°13'0 0.0
2017-Jul-15 05:29N 53°21' W 006°13'0 1.0
2017-Jul-15 04:59N 53°21' W 006°12'5 9.2
2017-Jul-15 04:29N 53°20' W 006°04'610.4
2017-Jul-15 03:57N 53°20' W 005°55'511.2
2017-Jul-15 03:29N 53°17' W 005°48'4315.8
2017-Jul-15 00:47N 52°34' W 005°48'518.7
2017-Jul-15 00:30N 52°29' W 005°51'1020.7
2017-Jul-15 00:00N 52°19' W 005°55'1020.7
2017-Jul-14 23:30N 52°09' W 005°60'1019.4
2017-Jul-14 23:00N 52°03' W 006°11'1020.1
2017-Jul-14 22:30N 52°00' W 006°27'1019.8
2017-Jul-14 22:00N 51°58' W 006°43'1019.2
2017-Jul-14 21:30N 51°55' W 006°58'1019.1
2017-Jul-14 21:00N 51°53' W 007°13'1019.0
2017-Jul-14 20:30N 51°51' W 007°28'918.9
2017-Jul-14 20:00N 51°48' W 007°43'1019.2
2017-Jul-14 19:31N 51°46' W 007°58'918.9
2017-Jul-14 19:00N 51°45' W 008°13'611.2
2017-Jul-14 18:31N 51°50' W 008°16'2 3.2
2017-Jul-14 18:00N 51°51' W 008°18'0 0.0
2017-Jul-14 17:29N 51°51' W 008°18'0 0.0
2017-Jul-14 16:59N 51°51' W 008°18'0 0.0
2017-Jul-14 16:29N 51°51' W 008°18'0 0.0
2017-Jul-14 15:59N 51°51' W 008°18'0 0.0
2017-Jul-14 15:29N 51°51' W 008°18'0 0.0
2017-Jul-14 14:59N 51°51' W 008°18'0 0.0
2017-Jul-14 14:29N 51°51' W 008°18'0 0.0
2017-Jul-14 13:59N 51°51' W 008°18'0 0.0
2017-Jul-14 13:29N 51°51' W 008°18'0 0.0
2017-Jul-14 12:59N 51°51' W 008°18'0 0.0
2017-Jul-14 12:30N 51°51' W 008°18'0 0.0
2017-Jul-14 11:59N 51°51' W 008°18'0 0.0
2017-Jul-14 11:30N 51°51' W 008°18'0 0.0
2017-Jul-14 10:59N 51°51' W 008°18'0 0.0
2017-Jul-14 10:29N 51°51' W 008°18'0 0.0
2017-Jul-14 10:01N 51°51' W 008°18'0 0.0
2017-Jul-14 09:28N 51°51' W 008°18'0 0.0
2017-Jul-14 09:01N 51°51' W 008°18'0 0.0
2017-Jul-14 08:31N 51°51' W 008°18'0 0.4
2017-Jul-14 08:00N 51°51' W 008°18'5 9.1
2017-Jul-14 07:31N 51°47' W 008°15'815.4
2017-Jul-14 07:00N 51°40' W 008°09'1019.1
2017-Jul-14 06:30N 51°34' W 007°57'1019.1
2017-Jul-14 06:00N 51°27' W 007°46'918.9
2017-Jul-14 05:30N 51°21' W 007°35'6618.7
2017-Jul-14 02:00N 50°36' W 006°18'1318.5 320 / 271022.810.8 15.014.118.0
2017-Jul-14 01:16N 50°26' W 006°03'618.6
2017-Jul-14 00:58N 50°23' W 005°57'817.1
2017-Jul-14 00:30N 50°15' W 005°54'1017.8
2017-Jul-13 23:58N 50°05' W 005°54'817.5
2017-Jul-13 23:29N 49°57' W 005°53'1116.6
2017-Jul-13 22:48N 49°51' W 005°38'818.7
2017-Jul-13 22:22N 49°49' W 005°26'718.5
2017-Jul-13 21:59N 49°47' W 005°15'918.4
2017-Jul-13 21:30N 49°45' W 005°02'1018.2
2017-Jul-13 20:57N 49°43' W 004°47'1818.0
2017-Jul-13 19:57N 49°39' W 004°20'817.6
2017-Jul-13 19:30N 49°37' W 004°08'917.5
2017-Jul-13 19:00N 49°36' W 003°54'917.7
2017-Jul-13 18:30N 49°33' W 003°41'918.0
2017-Jul-13 18:00N 49°31' W 003°28'918.2
2017-Jul-13 17:30N 49°29' W 003°14'1118.4
2017-Jul-13 16:56N 49°26' W 002°59'917.8
2017-Jul-13 16:25N 49°24' W 002°45'911.3
2017-Jul-13 15:35N 49°27' W 002°31'110.1
2017-Jul-13 15:30N 49°27' W 002°31'1 1.1
2017-Jul-13 15:01N 49°28' W 002°30'0 0.0
2017-Jul-13 14:25N 49°28' W 002°30'0 0.1
2017-Jul-13 13:55N 49°28' W 002°30'0 0.0
2017-Jul-13 13:28N 49°28' W 002°30'0 0.1
2017-Jul-13 12:58N 49°28' W 002°30'0 0.0
2017-Jul-13 12:30N 49°28' W 002°30'0 0.1
2017-Jul-13 12:00N 49°28' W 002°30'0 0.0
2017-Jul-13 11:30N 49°28' W 002°30'0 0.0
2017-Jul-13 10:16N 49°28' W 002°30'0 0.0
2017-Jul-13 08:28N 49°28' W 002°30'0 0.0
2017-Jul-13 07:25N 49°28' W 002°30'0 0.0
2017-Jul-13 05:58N 49°28' W 002°30'0 0.1
2017-Jul-13 05:25N 49°28' W 002°30'0 0.1
2017-Jul-13 04:36N 49°28' W 002°30'1 4.0
2017-Jul-13 04:28N 49°27' W 002°30'22 6.9
2017-Jul-13 01:17N 49°43' W 002°54'1012.9
2017-Jul-13 00:30N 49°53' W 002°57'611.7
2017-Jul-13 00:00N 49°58' W 002°52'816.0
2017-Jul-12 23:30N 49°60' W 002°40'915.2
2017-Jul-12 22:56N 50°02' W 002°28'914.4
2017-Jul-12 22:20N 50°06' W 002°16'514.1
2017-Jul-12 22:00N 50°09' W 002°09'714.0
2017-Jul-12 21:30N 50°12' W 001°60'714.0
2017-Jul-12 21:00N 50°16' W 001°51'714.0
2017-Jul-12 20:30N 50°19' W 001°41'714.7
2017-Jul-12 20:01N 50°23' W 001°31'815.2
2017-Jul-12 19:30N 50°27' W 001°21'815.8
2017-Jul-12 19:00N 50°31' W 001°10'815.8
2017-Jul-12 18:30N 50°35' W 000°60'713.8
2017-Jul-12 18:00N 50°42' W 000°58'714.8
2017-Jul-12 17:31N 50°46' W 001°09'713.2
2017-Jul-12 17:01N 50°47' W 001°19'5 9.2
2017-Jul-12 16:31N 50°52' W 001°22'2 4.6
2017-Jul-12 16:00N 50°53' W 001°24'0 0.0
2017-Jul-12 15:30N 50°53' W 001°24'0 0.0
2017-Jul-12 15:00N 50°53' W 001°24'0 0.0
2017-Jul-12 14:00N 50°53' W 001°24'0 0.0
2017-Jul-12 13:30N 50°53' W 001°24'0 0.0
2017-Jul-12 13:00N 50°53' W 001°24'0 0.0
2017-Jul-12 12:30N 50°53' W 001°24'0 0.0
2017-Jul-12 12:00N 50°53' W 001°24'0 0.0
2017-Jul-12 11:30N 50°53' W 001°24'0 0.0
2017-Jul-12 11:00N 50°53' W 001°24'0 0.0
2017-Jul-12 10:30N 50°53' W 001°24'0 0.0
2017-Jul-12 10:00N 50°53' W 001°24'0 0.0
2017-Jul-12 09:30N 50°53' W 001°24'0 0.0
2017-Jul-12 09:00N 50°53' W 001°24'0 0.0
2017-Jul-12 08:30N 50°53' W 001°24'0 0.0
2017-Jul-12 08:00N 50°53' W 001°24'0 0.0
2017-Jul-12 07:30N 50°53' W 001°24'0 0.0
2017-Jul-12 07:01N 50°53' W 001°24'0 0.0
2017-Jul-12 06:29N 50°53' W 001°24'  

Dump ship's entire track history